CheckWX is a tool to help pilots better visualize weather data.  It is not intended as a substitute for an official pre-flight weather briefing.

09:34:08 UTC

KLFI METAR
Langley AFB Airport
Hampton, Virginia, USA
Current

39 mins ago

KLFI 200855Z 09009KT 10SM OVC070 05/M08 A3050 RMK AO2A SLPNO ALSTG ESTMD WND ESTMD
Observed
Feb-20 @ 08:55 UTC
Wind
  • 090° at 9 KTS
Visibility
16,093 meters
Flight Rules
VFR
Cloud Levels
  • Overcast at 7,000' AGL
Temperature
C / 41°F
Dewpoint
-8°C / 18°F
Humidity
39%
Altimeter
30.5" Hg
Pressure
1032.81 hPa
Previous

2 hours ago

KLFI 200756Z AUTO 07006KT 10SM CLR 03/M05 A3055 RMK AO2 SLP352 T00341053 $
Observed
Feb-20 @ 07:56 UTC
Wind
  • 070° at 6 KTS
Visibility
16,093 meters
Flight Rules
VFR
Cloud Levels
  • Clear skies
Temperature
C / 37°F
Dewpoint
-5°C / 23°F
Humidity
56%
Altimeter
30.55" Hg
Pressure
1035.2 hPa
Previous

3 hours ago

KLFI 200656Z AUTO 06004KT 10SM CLR 03/M05 A3057 RMK AO2 SLP359 T00341048 $
Observed
Feb-20 @ 06:56 UTC
Wind
  • 060° at 4 KTS
Visibility
16,093 meters
Flight Rules
VFR
Cloud Levels
  • Clear skies
Temperature
C / 37°F
Dewpoint
-5°C / 23°F
Humidity
56%
Altimeter
30.57" Hg
Pressure
1035.9 hPa